
<gpx xmlns="http://www.topografix.com/GPX/1/1" xmlns:gpxx="http://www.garmin.com/xmlschemas/GpxExtensions/v3" xmlns:wptx1="http://www.garmin.com/xmlschemas/WaypointExtension/v1" xmlns:xsi="http://www.w3.org/2001/XMLSchema-instance" version="1.1" creator="Adze - https://getadze.com/" xsi:schemaLocation="http://www.topografix.com/GPX/1/1 http://www.topografix.com/GPX/1/1/gpx.xsd http://www.garmin.com/xmlschemas/GpxExtensions/v3 http://www8.garmin.com/xmlschemas/GpxExtensionsv3.xsd http://www.garmin.com/xmlschemas/WaypointExtension/v1 http://www8.garmin.com/xmlschemas/WaypointExtensionv1.xsd">
    <metadata>
        <name>Untitled Document</name>
        <link href="http://www.garmin.com"></link>
        <time>2018-03-05T08:33:25.492Z</time>
    </metadata>
    <wpt lon="101.301460" lat="14.317068">
        <ele>42.000000</ele>
        <name>Phu Khao Ngam Resort</name>
        <sym>Building</sym>
        <type>user</type>
        <extensions>
            <gpxx:WaypointExtension>
                <gpxx:DisplayMode>SymbolAndName</gpxx:DisplayMode>
            </gpxx:WaypointExtension>
            <wptx1:WaypointExtension>
                <wptx1:DisplayMode>SymbolAndName</wptx1:DisplayMode>
            </wptx1:WaypointExtension>
        </extensions>
    </wpt>
    <trk>
        <name>April 2006 - Sunday</name>
        <extensions>
            <gpxx:TrackExtension>
                <gpxx:DisplayColor>DarkGray</gpxx:DisplayColor>
            </gpxx:TrackExtension>
        </extensions>
        <trkseg>
            <trkpt lon="101.301327" lat="14.316494">
                <ele>35.706055</ele>
                <time>2006-04-23T03:33:11Z</time>
            </trkpt>
            <trkpt lon="101.301284" lat="14.316494">
                <ele>33.302856</ele>
                <time>2006-04-23T03:33:22Z</time>
            </trkpt>
            <trkpt lon="101.300983" lat="14.316537">
                <ele>33.783447</ele>
                <time>2006-04-23T03:33:34Z</time>
            </trkpt>
            <trkpt lon="101.300597" lat="14.316559">
                <ele>33.302856</ele>
                <time>2006-04-23T03:33:48Z</time>
            </trkpt>
            <trkpt lon="101.300447" lat="14.316473">
                <ele>32.822266</ele>
                <time>2006-04-23T03:33:52Z</time>
            </trkpt>
            <trkpt lon="101.299632" lat="14.315851">
                <ele>32.341553</ele>
                <time>2006-04-23T03:34:14Z</time>
            </trkpt>
            <trkpt lon="101.298838" lat="14.315250">
                <ele>32.822266</ele>
                <time>2006-04-23T03:34:36Z</time>
            </trkpt>
            <trkpt lon="101.298044" lat="14.314713">
                <ele>31.380127</ele>
                <time>2006-04-23T03:34:57Z</time>
            </trkpt>
            <trkpt lon="101.297915" lat="14.314713">
                <ele>31.380127</ele>
                <time>2006-04-23T03:35:01Z</time>
            </trkpt>
            <trkpt lon="101.297185" lat="14.315529">
                <ele>34.264160</ele>
                <time>2006-04-23T03:35:25Z</time>
            </trkpt>
            <trkpt lon="101.296949" lat="14.315679">
                <ele>34.744873</ele>
                <time>2006-04-23T03:35:31Z</time>
            </trkpt>
            <trkpt lon="101.296799" lat="14.315701">
                <ele>34.264160</ele>
                <time>2006-04-23T03:35:34Z</time>
            </trkpt>
            <trkpt lon="101.296628" lat="14.315894">
                <ele>33.783447</ele>
                <time>2006-04-23T03:35:40Z</time>
            </trkpt>
            <trkpt lon="101.296628" lat="14.316087">
                <ele>34.264160</ele>
                <time>2006-04-23T03:35:45Z</time>
            </trkpt>
            <trkpt lon="101.296606" lat="14.316559">
                <ele>37.628662</ele>
                <time>2006-04-23T03:35:56Z</time>
            </trkpt>
            <trkpt lon="101.296499" lat="14.316688">
                <ele>37.628662</ele>
                <time>2006-04-23T03:36:00Z</time>
            </trkpt>
            <trkpt lon="101.296349" lat="14.316730">
                <ele>37.628662</ele>
                <time>2006-04-23T03:36:03Z</time>
            </trkpt>
            <trkpt lon="101.295877" lat="14.317267">
                <ele>37.628662</ele>
                <time>2006-04-23T03:36:17Z</time>
            </trkpt>
            <trkpt lon="101.295640" lat="14.317546">
                <ele>36.667480</ele>
                <time>2006-04-23T03:36:30Z</time>
            </trkpt>
            <trkpt lon="101.295576" lat="14.317589">
                <ele>35.706055</ele>
                <time>2006-04-23T03:36:47Z</time>
            </trkpt>
            <trkpt lon="101.295469" lat="14.317718">
                <ele>35.706055</ele>
                <time>2006-04-23T03:37:06Z</time>
            </trkpt>
            <trkpt lon="101.295190" lat="14.318061">
                <ele>37.148071</ele>
                <time>2006-04-23T03:37:20Z</time>
            </trkpt>
            <trkpt lon="101.295125" lat="14.318404">
                <ele>36.667480</ele>
                <time>2006-04-23T03:37:31Z</time>
            </trkpt>
            <trkpt lon="101.295211" lat="14.318726">
                <ele>35.225464</ele>
                <time>2006-04-23T03:37:41Z</time>
            </trkpt>
            <trkpt lon="101.295404" lat="14.319177">
                <ele>35.225464</ele>
                <time>2006-04-23T03:37:56Z</time>
            </trkpt>
            <trkpt lon="101.295512" lat="14.319777">
                <ele>36.186768</ele>
                <time>2006-04-23T03:38:12Z</time>
            </trkpt>
            <trkpt lon="101.295061" lat="14.319799">
                <ele>34.264160</ele>
                <time>2006-04-23T03:38:24Z</time>
            </trkpt>
            <trkpt lon="101.294224" lat="14.319606">
                <ele>28.976929</ele>
                <time>2006-04-23T03:38:44Z</time>
            </trkpt>
            <trkpt lon="101.293945" lat="14.319627">
                <ele>29.457520</ele>
                <time>2006-04-23T03:38:50Z</time>
            </trkpt>
            <trkpt lon="101.293108" lat="14.319799">
                <ele>30.418823</ele>
                <time>2006-04-23T03:39:09Z</time>
            </trkpt>
            <trkpt lon="101.292958" lat="14.319820">
                <ele>31.860718</ele>
                <time>2006-04-23T03:39:19Z</time>
            </trkpt>
            <trkpt lon="101.292915" lat="14.319799">
                <ele>33.302856</ele>
                <time>2006-04-23T03:39:31Z</time>
            </trkpt>
            <trkpt lon="101.292744" lat="14.319391">
                <ele>35.225464</ele>
                <time>2006-04-23T03:39:45Z</time>
            </trkpt>
            <trkpt lon="101.292551" lat="14.318941">
                <ele>36.186768</ele>
                <time>2006-04-23T03:39:57Z</time>
            </trkpt>
            <trkpt lon="101.292486" lat="14.318812">
                <ele>35.706055</ele>
                <time>2006-04-23T03:40:01Z</time>
            </trkpt>
            <trkpt lon="101.292551" lat="14.318640">
                <ele>35.706055</ele>
                <time>2006-04-23T03:40:05Z</time>
            </trkpt>
            <trkpt lon="101.292615" lat="14.318340">
                <ele>36.186768</ele>
                <time>2006-04-23T03:40:15Z</time>
            </trkpt>
            <trkpt lon="101.292465" lat="14.318082">
                <ele>36.667480</ele>
                <time>2006-04-23T03:40:27Z</time>
            </trkpt>
            <trkpt lon="101.292465" lat="14.318104">
                <ele>36.667480</ele>
                <time>2006-04-23T03:40:31Z</time>
            </trkpt>
            <trkpt lon="101.292593" lat="14.318404">
                <ele>39.070679</ele>
                <time>2006-04-23T03:40:41Z</time>
            </trkpt>
            <trkpt lon="101.292529" lat="14.318554">
                <ele>39.070679</ele>
                <time>2006-04-23T03:40:45Z</time>
            </trkpt>
            <trkpt lon="101.292422" lat="14.318748">
                <ele>40.032104</ele>
                <time>2006-04-23T03:40:51Z</time>
            </trkpt>
            <trkpt lon="101.292508" lat="14.318962">
                <ele>40.032104</ele>
                <time>2006-04-23T03:40:56Z</time>
            </trkpt>
            <trkpt lon="101.292636" lat="14.319241">
                <ele>38.590088</ele>
                <time>2006-04-23T03:41:03Z</time>
            </trkpt>
            <trkpt lon="101.292658" lat="14.319305">
                <ele>37.628662</ele>
                <time>2006-04-23T03:41:05Z</time>
            </trkpt>
            <trkpt lon="101.292894" lat="14.319842">
                <ele>36.667480</ele>
                <time>2006-04-23T03:41:22Z</time>
            </trkpt>
            <trkpt lon="101.292937" lat="14.319863">
                <ele>36.667480</ele>
                <time>2006-04-23T03:41:25Z</time>
            </trkpt>
            <trkpt lon="101.293280" lat="14.319799">
                <ele>36.186768</ele>
                <time>2006-04-23T03:41:39Z</time>
            </trkpt>
            <trkpt lon="101.294074" lat="14.319692">
                <ele>36.667480</ele>
                <time>2006-04-23T03:42:03Z</time>
            </trkpt>
            <trkpt lon="101.294546" lat="14.319606">
                <ele>34.744873</ele>
                <time>2006-04-23T03:42:18Z</time>
            </trkpt>
            <trkpt lon="101.294546" lat="14.319777">
                <ele>37.148071</ele>
                <time>2006-04-23T03:42:25Z</time>
            </trkpt>
            <trkpt lon="101.294546" lat="14.319842">
                <ele>37.628662</ele>
                <time>2006-04-23T03:42:29Z</time>
            </trkpt>
            <trkpt lon="101.294525" lat="14.320185">
                <ele>37.148071</ele>
                <time>2006-04-23T03:42:41Z</time>
            </trkpt>
            <trkpt lon="101.294546" lat="14.320271">
                <ele>36.667480</ele>
                <time>2006-04-23T03:42:43Z</time>
            </trkpt>
            <trkpt lon="101.294589" lat="14.320700">
                <ele>35.706055</ele>
                <time>2006-04-23T03:42:54Z</time>
            </trkpt>
            <trkpt lon="101.294696" lat="14.320722">
                <ele>35.706055</ele>
                <time>2006-04-23T03:42:59Z</time>
            </trkpt>
            <trkpt lon="101.294739" lat="14.320722">
                <ele>36.186768</ele>
                <time>2006-04-23T03:43:01Z</time>
            </trkpt>
            <trkpt lon="101.294739" lat="14.320765">
                <ele>35.706055</ele>
                <time>2006-04-23T03:43:07Z</time>
            </trkpt>
            <trkpt lon="101.294739" lat="14.320743">
                <ele>35.706055</ele>
                <time>2006-04-23T03:43:08Z</time>
            </trkpt>
            <trkpt lon="101.294568" lat="14.320700">
                <ele>34.744873</ele>
                <time>2006-04-23T03:43:16Z</time>
            </trkpt>
            <trkpt lon="101.294546" lat="14.320550">
                <ele>34.744873</ele>
                <time>2006-04-23T03:43:20Z</time>
            </trkpt>
            <trkpt lon="101.294460" lat="14.319885">
                <ele>34.264160</ele>
                <time>2006-04-23T03:43:37Z</time>
            </trkpt>
            <trkpt lon="101.294482" lat="14.319563">
                <ele>33.302856</ele>
                <time>2006-04-23T03:43:51Z</time>
            </trkpt>
            <trkpt lon="101.294975" lat="14.319735">
                <ele>34.264160</ele>
                <time>2006-04-23T03:44:08Z</time>
            </trkpt>
            <trkpt lon="101.295297" lat="14.319820">
                <ele>34.264160</ele>
                <time>2006-04-23T03:44:21Z</time>
            </trkpt>
            <trkpt lon="101.295383" lat="14.319799">
                <ele>33.783447</ele>
                <time>2006-04-23T03:44:24Z</time>
            </trkpt>
            <trkpt lon="101.295469" lat="14.319735">
                <ele>33.302856</ele>
                <time>2006-04-23T03:44:28Z</time>
            </trkpt>
            <trkpt lon="101.295640" lat="14.319692">
                <ele>32.822266</ele>
                <time>2006-04-23T03:44:43Z</time>
            </trkpt>
            <trkpt lon="101.295640" lat="14.319692">
                <ele>35.225464</ele>
                <time>2006-04-23T03:44:53Z</time>
            </trkpt>
            <trkpt lon="101.295340" lat="14.319842">
                <ele>37.148071</ele>
                <time>2006-04-23T03:45:09Z</time>
            </trkpt>
            <trkpt lon="101.294954" lat="14.319799">
                <ele>36.667480</ele>
                <time>2006-04-23T03:45:22Z</time>
            </trkpt>
            <trkpt lon="101.294503" lat="14.319627">
                <ele>35.225464</ele>
                <time>2006-04-23T03:45:39Z</time>
            </trkpt>
            <trkpt lon="101.293731" lat="14.319670">
                <ele>36.667480</ele>
                <time>2006-04-23T03:46:01Z</time>
            </trkpt>
            <trkpt lon="101.293023" lat="14.319820">
                <ele>37.148071</ele>
                <time>2006-04-23T03:46:21Z</time>
            </trkpt>
            <trkpt lon="101.292679" lat="14.320056">
                <ele>38.109375</ele>
                <time>2006-04-23T03:46:33Z</time>
            </trkpt>
            <trkpt lon="101.292636" lat="14.320486">
                <ele>37.148071</ele>
                <time>2006-04-23T03:46:45Z</time>
            </trkpt>
            <trkpt lon="101.292529" lat="14.320636">
                <ele>37.628662</ele>
                <time>2006-04-23T03:46:49Z</time>
            </trkpt>
            <trkpt lon="101.292186" lat="14.320872">
                <ele>38.109375</ele>
                <time>2006-04-23T03:46:58Z</time>
            </trkpt>
            <trkpt lon="101.292057" lat="14.320915">
                <ele>38.109375</ele>
                <time>2006-04-23T03:47:01Z</time>
            </trkpt>
            <trkpt lon="101.291285" lat="14.320850">
                <ele>40.032104</ele>
                <time>2006-04-23T03:47:19Z</time>
            </trkpt>
            <trkpt lon="101.291006" lat="14.320829">
                <ele>40.993408</ele>
                <time>2006-04-23T03:47:25Z</time>
            </trkpt>
            <trkpt lon="101.290812" lat="14.320872">
                <ele>40.512817</ele>
                <time>2006-04-23T03:47:29Z</time>
            </trkpt>
            <trkpt lon="101.290255" lat="14.321086">
                <ele>41.954712</ele>
                <time>2006-04-23T03:47:42Z</time>
            </trkpt>
            <trkpt lon="101.289804" lat="14.321344">
                <ele>42.916016</ele>
                <time>2006-04-23T03:47:53Z</time>
            </trkpt>
            <trkpt lon="101.289654" lat="14.321666">
                <ele>42.916016</ele>
                <time>2006-04-23T03:48:01Z</time>
            </trkpt>
            <trkpt lon="101.289504" lat="14.321880">
                <ele>42.916016</ele>
                <time>2006-04-23T03:48:07Z</time>
            </trkpt>
            <trkpt lon="101.289117" lat="14.322202">
                <ele>41.473999</ele>
                <time>2006-04-23T03:48:18Z</time>
            </trkpt>
            <trkpt lon="101.288624" lat="14.322524">
                <ele>41.473999</ele>
                <time>2006-04-23T03:48:34Z</time>
            </trkpt>
            <trkpt lon="101.288538" lat="14.322889">
                <ele>43.877319</ele>
                <time>2006-04-23T03:48:44Z</time>
            </trkpt>
            <trkpt lon="101.288066" lat="14.323232">
                <ele>46.761230</ele>
                <time>2006-04-23T03:48:59Z</time>
            </trkpt>
            <trkpt lon="101.287701" lat="14.323833">
                <ele>47.241821</ele>
                <time>2006-04-23T03:49:16Z</time>
            </trkpt>
            <trkpt lon="101.287594" lat="14.323876">
                <ele>47.241821</ele>
                <time>2006-04-23T03:49:19Z</time>
            </trkpt>
            <trkpt lon="101.287272" lat="14.323940">
                <ele>49.164551</ele>
                <time>2006-04-23T03:49:26Z</time>
            </trkpt>
            <trkpt lon="101.287186" lat="14.323962">
                <ele>49.164551</ele>
                <time>2006-04-23T03:49:28Z</time>
            </trkpt>
            <trkpt lon="101.287036" lat="14.324133">
                <ele>49.645264</ele>
                <time>2006-04-23T03:49:34Z</time>
            </trkpt>
            <trkpt lon="101.286435" lat="14.324262">
                <ele>49.645264</ele>
                <time>2006-04-23T03:49:48Z</time>
            </trkpt>
            <trkpt lon="101.285899" lat="14.324305">
                <ele>49.645264</ele>
                <time>2006-04-23T03:50:00Z</time>
            </trkpt>
            <trkpt lon="101.285512" lat="14.324412">
                <ele>51.087158</ele>
                <time>2006-04-23T03:50:09Z</time>
            </trkpt>
            <trkpt lon="101.284912" lat="14.324477">
                <ele>52.048584</ele>
                <time>2006-04-23T03:50:25Z</time>
            </trkpt>
            <trkpt lon="101.284654" lat="14.324627">
                <ele>51.087158</ele>
                <time>2006-04-23T03:50:33Z</time>
            </trkpt>
            <trkpt lon="101.284482" lat="14.324605">
                <ele>51.087158</ele>
                <time>2006-04-23T03:50:37Z</time>
            </trkpt>
            <trkpt lon="101.284397" lat="14.324584">
                <ele>51.087158</ele>
                <time>2006-04-23T03:50:39Z</time>
            </trkpt>
            <trkpt lon="101.284289" lat="14.324498">
                <ele>51.087158</ele>
                <time>2006-04-23T03:50:42Z</time>
            </trkpt>
            <trkpt lon="101.284289" lat="14.324348">
                <ele>50.606567</ele>
                <time>2006-04-23T03:50:46Z</time>
            </trkpt>
            <trkpt lon="101.284332" lat="14.324262">
                <ele>50.606567</ele>
                <time>2006-04-23T03:50:48Z</time>
            </trkpt>
            <trkpt lon="101.284375" lat="14.324048">
                <ele>51.087158</ele>
                <time>2006-04-23T03:50:53Z</time>
            </trkpt>
            <trkpt lon="101.283967" lat="14.323039">
                <ele>50.606567</ele>
                <time>2006-04-23T03:51:16Z</time>
            </trkpt>
            <trkpt lon="101.283946" lat="14.322824">
                <ele>51.087158</ele>
                <time>2006-04-23T03:51:21Z</time>
            </trkpt>
            <trkpt lon="101.284010" lat="14.322481">
                <ele>51.087158</ele>
                <time>2006-04-23T03:51:28Z</time>
            </trkpt>
            <trkpt lon="101.283796" lat="14.322009">
                <ele>52.048584</ele>
                <time>2006-04-23T03:51:39Z</time>
            </trkpt>
            <trkpt lon="101.283753" lat="14.321859">
                <ele>53.971191</ele>
                <time>2006-04-23T03:51:43Z</time>
            </trkpt>
            <trkpt lon="101.283560" lat="14.321902">
                <ele>56.374512</ele>
                <time>2006-04-23T03:51:49Z</time>
            </trkpt>
            <trkpt lon="101.282873" lat="14.322095">
                <ele>56.855103</ele>
                <time>2006-04-23T03:52:07Z</time>
            </trkpt>
            <trkpt lon="101.281929" lat="14.322309">
                <ele>56.374512</ele>
                <time>2006-04-23T03:52:29Z</time>
            </trkpt>
            <trkpt lon="101.280878" lat="14.322631">
                <ele>58.297119</ele>
                <time>2006-04-23T03:52:54Z</time>
            </trkpt>
            <trkpt lon="101.279655" lat="14.323039">
                <ele>56.855103</ele>
                <time>2006-04-23T03:53:21Z</time>
            </trkpt>
            <trkpt lon="101.278861" lat="14.323254">
                <ele>55.893799</ele>
                <time>2006-04-23T03:53:39Z</time>
            </trkpt>
            <trkpt lon="101.278453" lat="14.323361">
                <ele>57.335815</ele>
                <time>2006-04-23T03:53:50Z</time>
            </trkpt>
            <trkpt lon="101.278281" lat="14.323468">
                <ele>59.739136</ele>
                <time>2006-04-23T03:53:55Z</time>
            </trkpt>
            <trkpt lon="101.277595" lat="14.323833">
                <ele>60.219727</ele>
                <time>2006-04-23T03:54:15Z</time>
            </trkpt>
            <trkpt lon="101.276908" lat="14.324198">
                <ele>61.181030</ele>
                <time>2006-04-23T03:54:36Z</time>
            </trkpt>
            <trkpt lon="101.276221" lat="14.324455">
                <ele>64.545654</ele>
                <time>2006-04-23T03:54:56Z</time>
            </trkpt>
            <trkpt lon="101.275685" lat="14.324627">
                <ele>64.545654</ele>
                <time>2006-04-23T03:55:10Z</time>
            </trkpt>
            <trkpt lon="101.274805" lat="14.324884">
                <ele>67.429688</ele>
                <time>2006-04-23T03:55:31Z</time>
            </trkpt>
            <trkpt lon="101.273711" lat="14.325485">
                <ele>69.352295</ele>
                <time>2006-04-23T03:55:59Z</time>
            </trkpt>
            <trkpt lon="101.273496" lat="14.325614">
                <ele>70.313477</ele>
                <time>2006-04-23T03:56:04Z</time>
            </trkpt>
            <trkpt lon="101.273131" lat="14.326086">
                <ele>73.678223</ele>
                <time>2006-04-23T03:56:19Z</time>
            </trkpt>
            <trkpt lon="101.272767" lat="14.326708">
                <ele>77.042847</ele>
                <time>2006-04-23T03:56:40Z</time>
            </trkpt>
            <trkpt lon="101.272337" lat="14.327374">
                <ele>79.446045</ele>
                <time>2006-04-23T03:57:02Z</time>
            </trkpt>
            <trkpt lon="101.271780" lat="14.327953">
                <ele>78.484741</ele>
                <time>2006-04-23T03:57:20Z</time>
            </trkpt>
            <trkpt lon="101.270921" lat="14.328446">
                <ele>80.888184</ele>
                <time>2006-04-23T03:57:41Z</time>
            </trkpt>
            <trkpt lon="101.270192" lat="14.328876">
                <ele>84.252686</ele>
                <time>2006-04-23T03:58:05Z</time>
            </trkpt>
            <trkpt lon="101.269355" lat="14.329369">
                <ele>84.733398</ele>
                <time>2006-04-23T03:58:34Z</time>
            </trkpt>
            <trkpt lon="101.268454" lat="14.330034">
                <ele>84.733398</ele>
                <time>2006-04-23T03:59:08Z</time>
            </trkpt>
            <trkpt lon="101.267960" lat="14.330678">
                <ele>89.539917</ele>
                <time>2006-04-23T03:59:34Z</time>
            </trkpt>
            <trkpt lon="101.267488" lat="14.331236">
                <ele>93.865845</ele>
                <time>2006-04-23T03:59:58Z</time>
            </trkpt>
            <trkpt lon="101.266844" lat="14.331708">
                <ele>94.827148</ele>
                <time>2006-04-23T04:00:24Z</time>
            </trkpt>
            <trkpt lon="101.265707" lat="14.332137">
                <ele>95.788452</ele>
                <time>2006-04-23T04:00:52Z</time>
            </trkpt>
            <trkpt lon="101.265020" lat="14.332438">
                <ele>96.749878</ele>
                <time>2006-04-23T04:01:16Z</time>
            </trkpt>
            <trkpt lon="101.264420" lat="14.332781">
                <ele>101.075684</ele>
                <time>2006-04-23T04:01:41Z</time>
            </trkpt>
            <trkpt lon="101.263711" lat="14.333081">
                <ele>102.998291</ele>
                <time>2006-04-23T04:02:04Z</time>
            </trkpt>
            <trkpt lon="101.263626" lat="14.333081">
                <ele>102.517700</ele>
                <time>2006-04-23T04:02:06Z</time>
            </trkpt>
            <trkpt lon="101.263454" lat="14.333038">
                <ele>101.556396</ele>
                <time>2006-04-23T04:02:10Z</time>
            </trkpt>
            <trkpt lon="101.262317" lat="14.332459">
                <ele>101.556396</ele>
                <time>2006-04-23T04:02:31Z</time>
            </trkpt>
            <trkpt lon="101.261952" lat="14.332352">
                <ele>100.595093</ele>
                <time>2006-04-23T04:02:38Z</time>
            </trkpt>
            <trkpt lon="101.261888" lat="14.332480">
                <ele>99.153076</ele>
                <time>2006-04-23T04:02:44Z</time>
            </trkpt>
            <trkpt lon="101.261888" lat="14.332566">
                <ele>99.153076</ele>
                <time>2006-04-23T04:02:46Z</time>
            </trkpt>
            <trkpt lon="101.262145" lat="14.332867">
                <ele>98.191895</ele>
                <time>2006-04-23T04:02:59Z</time>
            </trkpt>
            <trkpt lon="101.262381" lat="14.333081">
                <ele>98.191895</ele>
                <time>2006-04-23T04:03:18Z</time>
            </trkpt>
            <trkpt lon="101.262445" lat="14.333317">
                <ele>98.672485</ele>
                <time>2006-04-23T04:03:37Z</time>
            </trkpt>
            <trkpt lon="101.262167" lat="14.333532">
                <ele>100.595093</ele>
                <time>2006-04-23T04:03:52Z</time>
            </trkpt>
            <trkpt lon="101.261501" lat="14.333596">
                <ele>100.595093</ele>
                <time>2006-04-23T04:04:11Z</time>
            </trkpt>
            <trkpt lon="101.261201" lat="14.333510">
                <ele>100.114502</ele>
                <time>2006-04-23T04:04:24Z</time>
            </trkpt>
            <trkpt lon="101.261008" lat="14.333446">
                <ele>99.153076</ele>
                <time>2006-04-23T04:04:30Z</time>
            </trkpt>
            <trkpt lon="101.260922" lat="14.333446">
                <ele>99.633789</ele>
                <time>2006-04-23T04:04:32Z</time>
            </trkpt>
            <trkpt lon="101.260300" lat="14.333661">
                <ele>99.633789</ele>
                <time>2006-04-23T04:04:49Z</time>
            </trkpt>
            <trkpt lon="101.259677" lat="14.333982">
                <ele>99.633789</ele>
                <time>2006-04-23T04:05:14Z</time>
            </trkpt>
            <trkpt lon="101.259162" lat="14.334240">
                <ele>100.114502</ele>
                <time>2006-04-23T04:05:32Z</time>
            </trkpt>
            <trkpt lon="101.258647" lat="14.334605">
                <ele>101.556396</ele>
                <time>2006-04-23T04:05:50Z</time>
            </trkpt>
            <trkpt lon="101.258090" lat="14.334819">
                <ele>101.556396</ele>
                <time>2006-04-23T04:06:08Z</time>
            </trkpt>
            <trkpt lon="101.257532" lat="14.334970">
                <ele>102.037109</ele>
                <time>2006-04-23T04:06:27Z</time>
            </trkpt>
            <trkpt lon="101.256974" lat="14.335184">
                <ele>101.075684</ele>
                <time>2006-04-23T04:06:53Z</time>
            </trkpt>
            <trkpt lon="101.256759" lat="14.335463">
                <ele>101.556396</ele>
                <time>2006-04-23T04:07:09Z</time>
            </trkpt>
            <trkpt lon="101.256373" lat="14.336214">
                <ele>101.556396</ele>
                <time>2006-04-23T04:07:44Z</time>
            </trkpt>
            <trkpt lon="101.256351" lat="14.336278">
                <ele>102.517700</ele>
                <time>2006-04-23T04:07:49Z</time>
            </trkpt>
            <trkpt lon="101.256073" lat="14.336922">
                <ele>102.998291</ele>
                <time>2006-04-23T04:08:33Z</time>
            </trkpt>
            <trkpt lon="101.256115" lat="14.337330">
                <ele>102.998291</ele>
                <time>2006-04-23T04:08:54Z</time>
            </trkpt>
            <trkpt lon="101.255901" lat="14.337459">
                <ele>102.998291</ele>
                <time>2006-04-23T04:09:08Z</time>
            </trkpt>
            <trkpt lon="101.256244" lat="14.337759">
                <ele>103.959717</ele>
                <time>2006-04-23T04:09:31Z</time>
            </trkpt>
            <trkpt lon="101.256094" lat="14.337888">
                <ele>103.959717</ele>
                <time>2006-04-23T04:09:54Z</time>
            </trkpt>
            <trkpt lon="101.256073" lat="14.337931">
                <ele>103.959717</ele>
                <time>2006-04-23T04:10:01Z</time>
            </trkpt>
            <trkpt lon="101.255643" lat="14.338360">
                <ele>103.959717</ele>
                <time>2006-04-23T04:10:38Z</time>
            </trkpt>
            <trkpt lon="101.254978" lat="14.338789">
                <ele>103.959717</ele>
                <time>2006-04-23T04:11:20Z</time>
            </trkpt>
            <trkpt lon="101.254292" lat="14.339175">
                <ele>107.324341</ele>
                <time>2006-04-23T04:12:09Z</time>
            </trkpt>
            <trkpt lon="101.254227" lat="14.339197">
                <ele>118.860107</ele>
                <time>2006-04-23T04:13:02Z</time>
            </trkpt>
            <trkpt lon="101.254678" lat="14.339089">
                <ele>156.351562</ele>
                <time>2006-04-23T04:22:54Z</time>
            </trkpt>
            <trkpt lon="101.254613" lat="14.339004">
                <ele>156.351562</ele>
                <time>2006-04-23T04:23:13Z</time>
            </trkpt>
            <trkpt lon="101.255343" lat="14.338703">
                <ele>156.351562</ele>
                <time>2006-04-23T04:23:40Z</time>
            </trkpt>
            <trkpt lon="101.256051" lat="14.338295">
                <ele>155.390259</ele>
                <time>2006-04-23T04:24:33Z</time>
            </trkpt>
            <trkpt lon="101.256073" lat="14.338274">
                <ele>155.390259</ele>
                <time>2006-04-23T04:24:35Z</time>
            </trkpt>
            <trkpt lon="101.256137" lat="14.338081">
                <ele>155.390259</ele>
                <time>2006-04-23T04:24:51Z</time>
            </trkpt>
            <trkpt lon="101.256287" lat="14.337051">
                <ele>155.390259</ele>
                <time>2006-04-23T04:25:32Z</time>
            </trkpt>
            <trkpt lon="101.256866" lat="14.336343">
                <ele>145.777100</ele>
                <time>2006-04-23T04:26:05Z</time>
            </trkpt>
            <trkpt lon="101.257038" lat="14.335849">
                <ele>139.047852</ele>
                <time>2006-04-23T04:26:22Z</time>
            </trkpt>
            <trkpt lon="101.257060" lat="14.335141">
                <ele>120.782837</ele>
                <time>2006-04-23T04:26:54Z</time>
            </trkpt>
            <trkpt lon="101.257231" lat="14.334798">
                <ele>120.782837</ele>
                <time>2006-04-23T04:27:13Z</time>
            </trkpt>
            <trkpt lon="101.256931" lat="14.334347">
                <ele>119.821411</ele>
                <time>2006-04-23T04:28:11Z</time>
            </trkpt>
            <trkpt lon="101.256952" lat="14.334326">
                <ele>120.302124</ele>
                <time>2006-04-23T04:28:14Z</time>
            </trkpt>
            <trkpt lon="101.257124" lat="14.334219">
                <ele>120.302124</ele>
                <time>2006-04-23T04:28:19Z</time>
            </trkpt>
            <trkpt lon="101.257145" lat="14.334111">
                <ele>119.821411</ele>
                <time>2006-04-23T04:28:26Z</time>
            </trkpt>
            <trkpt lon="101.257296" lat="14.333982">
                <ele>118.379395</ele>
                <time>2006-04-23T04:28:35Z</time>
            </trkpt>
            <trkpt lon="101.257424" lat="14.334111">
                <ele>113.572998</ele>
                <time>2006-04-23T04:28:49Z</time>
            </trkpt>
            <trkpt lon="101.257467" lat="14.334133">
                <ele>110.208252</ele>
                <time>2006-04-23T04:29:03Z</time>
            </trkpt>
            <trkpt lon="101.257489" lat="14.334154">
                <ele>110.208252</ele>
                <time>2006-04-23T04:29:07Z</time>
            </trkpt>
            <trkpt lon="101.257510" lat="14.334176">
                <ele>109.727661</ele>
                <time>2006-04-23T04:29:11Z</time>
            </trkpt>
            <trkpt lon="101.257639" lat="14.334111">
                <ele>106.843628</ele>
                <time>2006-04-23T04:29:29Z</time>
            </trkpt>
            <trkpt lon="101.257746" lat="14.334004">
                <ele>104.440430</ele>
                <time>2006-04-23T04:29:43Z</time>
            </trkpt>
            <trkpt lon="101.257768" lat="14.334004">
                <ele>103.959717</ele>
                <time>2006-04-23T04:29:44Z</time>
            </trkpt>
            <trkpt lon="101.257875" lat="14.333940">
                <ele>102.517700</ele>
                <time>2006-04-23T04:29:49Z</time>
            </trkpt>
            <trkpt lon="101.258068" lat="14.333746">
                <ele>103.479004</ele>
                <time>2006-04-23T04:30:00Z</time>
            </trkpt>
            <trkpt lon="101.258090" lat="14.333339">
                <ele>103.479004</ele>
                <time>2006-04-23T04:30:18Z</time>
            </trkpt>
            <trkpt lon="101.258497" lat="14.333081">
                <ele>103.479004</ele>
                <time>2006-04-23T04:30:34Z</time>
            </trkpt>
            <trkpt lon="101.258883" lat="14.333038">
                <ele>103.959717</ele>
                <time>2006-04-23T04:30:48Z</time>
            </trkpt>
            <trkpt lon="101.259356" lat="14.332824">
                <ele>101.556396</ele>
                <time>2006-04-23T04:31:04Z</time>
            </trkpt>
            <trkpt lon="101.259484" lat="14.332480">
                <ele>100.114502</ele>
                <time>2006-04-23T04:31:15Z</time>
            </trkpt>
            <trkpt lon="101.259441" lat="14.332244">
                <ele>99.153076</ele>
                <time>2006-04-23T04:31:24Z</time>
            </trkpt>
            <trkpt lon="101.259763" lat="14.331923">
                <ele>101.075684</ele>
                <time>2006-04-23T04:31:38Z</time>
            </trkpt>
            <trkpt lon="101.259978" lat="14.331665">
                <ele>101.556396</ele>
                <time>2006-04-23T04:31:54Z</time>
            </trkpt>
            <trkpt lon="101.260085" lat="14.331536">
                <ele>101.556396</ele>
                <time>2006-04-23T04:32:15Z</time>
            </trkpt>
            <trkpt lon="101.260386" lat="14.331300">
                <ele>101.075684</ele>
                <time>2006-04-23T04:32:24Z</time>
            </trkpt>
            <trkpt lon="101.260943" lat="14.330614">
                <ele>101.075684</ele>
                <time>2006-04-23T04:32:45Z</time>
            </trkpt>
            <trkpt lon="101.261866" lat="14.329691">
                <ele>102.517700</ele>
                <time>2006-04-23T04:33:08Z</time>
            </trkpt>
            <trkpt lon="101.262853" lat="14.328876">
                <ele>99.153076</ele>
                <time>2006-04-23T04:33:29Z</time>
            </trkpt>
            <trkpt lon="101.263711" lat="14.327867">
                <ele>98.191895</ele>
                <time>2006-04-23T04:33:52Z</time>
            </trkpt>
            <trkpt lon="101.263776" lat="14.327781">
                <ele>97.711182</ele>
                <time>2006-04-23T04:33:54Z</time>
            </trkpt>
            <trkpt lon="101.264012" lat="14.327631">
                <ele>95.788452</ele>
                <time>2006-04-23T04:33:59Z</time>
            </trkpt>
            <trkpt lon="101.264248" lat="14.327524">
                <ele>93.385132</ele>
                <time>2006-04-23T04:34:04Z</time>
            </trkpt>
            <trkpt lon="101.264484" lat="14.327374">
                <ele>92.423950</ele>
                <time>2006-04-23T04:34:10Z</time>
            </trkpt>
            <trkpt lon="101.265557" lat="14.326472">
                <ele>86.175293</ele>
                <time>2006-04-23T04:34:34Z</time>
            </trkpt>
            <trkpt lon="101.266587" lat="14.325743">
                <ele>89.539917</ele>
                <time>2006-04-23T04:34:55Z</time>
            </trkpt>
            <trkpt lon="101.267252" lat="14.325314">
                <ele>88.578735</ele>
                <time>2006-04-23T04:35:08Z</time>
            </trkpt>
            <trkpt lon="101.267939" lat="14.325142">
                <ele>86.656006</ele>
                <time>2006-04-23T04:35:22Z</time>
            </trkpt>
            <trkpt lon="101.268883" lat="14.324670">
                <ele>81.368774</ele>
                <time>2006-04-23T04:35:40Z</time>
            </trkpt>
            <trkpt lon="101.269033" lat="14.324584">
                <ele>79.926636</ele>
                <time>2006-04-23T04:35:43Z</time>
            </trkpt>
            <trkpt lon="101.269655" lat="14.323790">
                <ele>78.484741</ele>
                <time>2006-04-23T04:36:01Z</time>
            </trkpt>
            <trkpt lon="101.269870" lat="14.323533">
                <ele>78.965454</ele>
                <time>2006-04-23T04:36:07Z</time>
            </trkpt>
            <trkpt lon="101.271565" lat="14.322417">
                <ele>79.926636</ele>
                <time>2006-04-23T04:36:41Z</time>
            </trkpt>
            <trkpt lon="101.272681" lat="14.321365">
                <ele>77.523438</ele>
                <time>2006-04-23T04:37:07Z</time>
            </trkpt>
            <trkpt lon="101.273131" lat="14.320636">
                <ele>76.562134</ele>
                <time>2006-04-23T04:37:23Z</time>
            </trkpt>
            <trkpt lon="101.273153" lat="14.320400">
                <ele>77.042847</ele>
                <time>2006-04-23T04:37:34Z</time>
            </trkpt>
            <trkpt lon="101.273196" lat="14.320378">
                <ele>79.446045</ele>
                <time>2006-04-23T04:54:23Z</time>
            </trkpt>
            <trkpt lon="101.273196" lat="14.320314">
                <ele>77.523438</ele>
                <time>2006-04-23T04:54:37Z</time>
            </trkpt>
            <trkpt lon="101.273217" lat="14.320314">
                <ele>76.562134</ele>
                <time>2006-04-23T04:54:41Z</time>
            </trkpt>
            <trkpt lon="101.273367" lat="14.319992">
                <ele>76.562134</ele>
                <time>2006-04-23T04:54:57Z</time>
            </trkpt>
            <trkpt lon="101.273625" lat="14.319584">
                <ele>76.081421</ele>
                <time>2006-04-23T04:55:13Z</time>
            </trkpt>
            <trkpt lon="101.274033" lat="14.319048">
                <ele>76.081421</ele>
                <time>2006-04-23T04:55:29Z</time>
            </trkpt>
            <trkpt lon="101.274505" lat="14.318683">
                <ele>75.600830</ele>
                <time>2006-04-23T04:55:42Z</time>
            </trkpt>
            <trkpt lon="101.274676" lat="14.318511">
                <ele>75.120239</ele>
                <time>2006-04-23T04:55:51Z</time>
            </trkpt>
            <trkpt lon="101.274698" lat="14.318447">
                <ele>74.158813</ele>
                <time>2006-04-23T04:55:56Z</time>
            </trkpt>
            <trkpt lon="101.274612" lat="14.317846">
                <ele>74.158813</ele>
                <time>2006-04-23T04:56:15Z</time>
            </trkpt>
            <trkpt lon="101.274590" lat="14.317224">
                <ele>74.158813</ele>
                <time>2006-04-23T04:56:36Z</time>
            </trkpt>
            <trkpt lon="101.274655" lat="14.317095">
                <ele>74.158813</ele>
                <time>2006-04-23T04:56:41Z</time>
            </trkpt>
            <trkpt lon="101.274869" lat="14.316924">
                <ele>74.639526</ele>
                <time>2006-04-23T04:56:48Z</time>
            </trkpt>
            <trkpt lon="101.275728" lat="14.316645">
                <ele>75.600830</ele>
                <time>2006-04-23T04:57:06Z</time>
            </trkpt>
            <trkpt lon="101.277316" lat="14.316087">
                <ele>76.081421</ele>
                <time>2006-04-23T04:57:35Z</time>
            </trkpt>
            <trkpt lon="101.278002" lat="14.315615">
                <ele>73.678223</ele>
                <time>2006-04-23T04:57:49Z</time>
            </trkpt>
            <trkpt lon="101.278903" lat="14.314799">
                <ele>72.236206</ele>
                <time>2006-04-23T04:58:13Z</time>
            </trkpt>
            <trkpt lon="101.279762" lat="14.314113">
                <ele>71.274902</ele>
                <time>2006-04-23T04:58:31Z</time>
            </trkpt>
            <trkpt lon="101.280491" lat="14.313576">
                <ele>66.948975</ele>
                <time>2006-04-23T04:58:45Z</time>
            </trkpt>
            <trkpt lon="101.280813" lat="14.313469">
                <ele>67.429688</ele>
                <time>2006-04-23T04:58:50Z</time>
            </trkpt>
            <trkpt lon="101.281972" lat="14.313619">
                <ele>61.181030</ele>
                <time>2006-04-23T04:59:06Z</time>
            </trkpt>
            <trkpt lon="101.282251" lat="14.313555">
                <ele>60.219727</ele>
                <time>2006-04-23T04:59:10Z</time>
            </trkpt>
            <trkpt lon="101.282444" lat="14.313447">
                <ele>59.258423</ele>
                <time>2006-04-23T04:59:13Z</time>
            </trkpt>
            <trkpt lon="101.282637" lat="14.313211">
                <ele>58.297119</ele>
                <time>2006-04-23T04:59:17Z</time>
            </trkpt>
            <trkpt lon="101.282830" lat="14.312890">
                <ele>57.816528</ele>
                <time>2006-04-23T04:59:22Z</time>
            </trkpt>
            <trkpt lon="101.283023" lat="14.312096">
                <ele>55.413086</ele>
                <time>2006-04-23T04:59:35Z</time>
            </trkpt>
            <trkpt lon="101.283045" lat="14.311838">
                <ele>53.971191</ele>
                <time>2006-04-23T04:59:42Z</time>
            </trkpt>
            <trkpt lon="101.283002" lat="14.311666">
                <ele>53.971191</ele>
                <time>2006-04-23T04:59:46Z</time>
            </trkpt>
            <trkpt lon="101.282980" lat="14.311581">
                <ele>53.971191</ele>
                <time>2006-04-23T04:59:48Z</time>
            </trkpt>
            <trkpt lon="101.282873" lat="14.311452">
                <ele>53.490479</ele>
                <time>2006-04-23T04:59:52Z</time>
            </trkpt>
            <trkpt lon="101.282015" lat="14.311044">
                <ele>52.048584</ele>
                <time>2006-04-23T05:00:10Z</time>
            </trkpt>
            <trkpt lon="101.281650" lat="14.310851">
                <ele>51.567871</ele>
                <time>2006-04-23T05:00:18Z</time>
            </trkpt>
            <trkpt lon="101.281521" lat="14.310572">
                <ele>51.087158</ele>
                <time>2006-04-23T05:00:24Z</time>
            </trkpt>
            <trkpt lon="101.281521" lat="14.310486">
                <ele>50.606567</ele>
                <time>2006-04-23T05:00:26Z</time>
            </trkpt>
            <trkpt lon="101.281822" lat="14.309692">
                <ele>52.048584</ele>
                <time>2006-04-23T05:00:45Z</time>
            </trkpt>
            <trkpt lon="101.282208" lat="14.308898">
                <ele>52.529175</ele>
                <time>2006-04-23T05:01:11Z</time>
            </trkpt>
            <trkpt lon="101.282229" lat="14.308341">
                <ele>53.490479</ele>
                <time>2006-04-23T05:01:30Z</time>
            </trkpt>
            <trkpt lon="101.282272" lat="14.308190">
                <ele>53.971191</ele>
                <time>2006-04-23T05:01:34Z</time>
            </trkpt>
            <trkpt lon="101.282380" lat="14.308040">
                <ele>54.451782</ele>
                <time>2006-04-23T05:01:38Z</time>
            </trkpt>
            <trkpt lon="101.283152" lat="14.307439">
                <ele>52.529175</ele>
                <time>2006-04-23T05:01:56Z</time>
            </trkpt>
            <trkpt lon="101.283367" lat="14.307289">
                <ele>53.009766</ele>
                <time>2006-04-23T05:02:01Z</time>
            </trkpt>
            <trkpt lon="101.283517" lat="14.307225">
                <ele>52.529175</ele>
                <time>2006-04-23T05:02:04Z</time>
            </trkpt>
            <trkpt lon="101.283753" lat="14.307225">
                <ele>52.048584</ele>
                <time>2006-04-23T05:02:08Z</time>
            </trkpt>
            <trkpt lon="101.284547" lat="14.307353">
                <ele>50.125977</ele>
                <time>2006-04-23T05:02:20Z</time>
            </trkpt>
            <trkpt lon="101.284912" lat="14.307203">
                <ele>49.645264</ele>
                <time>2006-04-23T05:02:26Z</time>
            </trkpt>
            <trkpt lon="101.285598" lat="14.306560">
                <ele>48.683960</ele>
                <time>2006-04-23T05:02:42Z</time>
            </trkpt>
            <trkpt lon="101.285985" lat="14.306109">
                <ele>46.280640</ele>
                <time>2006-04-23T05:02:54Z</time>
            </trkpt>
            <trkpt lon="101.285985" lat="14.306109">
                <ele>44.838623</ele>
                <time>2006-04-23T05:03:00Z</time>
            </trkpt>
            <trkpt lon="101.285942" lat="14.306045">
                <ele>44.358032</ele>
                <time>2006-04-23T05:03:04Z</time>
            </trkpt>
            <trkpt lon="101.285684" lat="14.305701">
                <ele>43.877319</ele>
                <time>2006-04-23T05:03:17Z</time>
            </trkpt>
            <trkpt lon="101.285255" lat="14.305294">
                <ele>42.435425</ele>
                <time>2006-04-23T05:03:33Z</time>
            </trkpt>
            <trkpt lon="101.285212" lat="14.304929">
                <ele>44.838623</ele>
                <time>2006-04-23T05:03:47Z</time>
            </trkpt>
            <trkpt lon="101.285212" lat="14.304585">
                <ele>48.683960</ele>
                <time>2006-04-23T05:04:04Z</time>
            </trkpt>
            <trkpt lon="101.285233" lat="14.304006">
                <ele>49.645264</ele>
                <time>2006-04-23T05:04:25Z</time>
            </trkpt>
            <trkpt lon="101.285319" lat="14.303684">
                <ele>50.606567</ele>
                <time>2006-04-23T05:04:36Z</time>
            </trkpt>
            <trkpt lon="101.285384" lat="14.303384">
                <ele>51.087158</ele>
                <time>2006-04-23T05:04:53Z</time>
            </trkpt>
            <trkpt lon="101.285341" lat="14.303019">
                <ele>52.048584</ele>
                <time>2006-04-23T05:05:09Z</time>
            </trkpt>
            <trkpt lon="101.285298" lat="14.302547">
                <ele>55.413086</ele>
                <time>2006-04-23T05:05:28Z</time>
            </trkpt>
            <trkpt lon="101.285276" lat="14.302182">
                <ele>60.219727</ele>
                <time>2006-04-23T05:05:47Z</time>
            </trkpt>
            <trkpt lon="101.285148" lat="14.301796">
                <ele>62.622925</ele>
                <time>2006-04-23T05:06:08Z</time>
            </trkpt>
            <trkpt lon="101.284869" lat="14.301474">
                <ele>62.142334</ele>
                <time>2006-04-23T05:06:20Z</time>
            </trkpt>
            <trkpt lon="101.284418" lat="14.300423">
                <ele>62.622925</ele>
                <time>2006-04-23T05:06:49Z</time>
            </trkpt>
            <trkpt lon="101.284311" lat="14.299200">
                <ele>57.816528</ele>
                <time>2006-04-23T05:07:22Z</time>
            </trkpt>
            <trkpt lon="101.284525" lat="14.298234">
                <ele>48.683960</ele>
                <time>2006-04-23T05:07:37Z</time>
            </trkpt>
            <trkpt lon="101.284611" lat="14.298019">
                <ele>47.722534</ele>
                <time>2006-04-23T05:07:40Z</time>
            </trkpt>
            <trkpt lon="101.284761" lat="14.297805">
                <ele>46.280640</ele>
                <time>2006-04-23T05:07:44Z</time>
            </trkpt>
            <trkpt lon="101.284740" lat="14.297805">
                <ele>44.358032</ele>
                <time>2006-04-23T05:07:50Z</time>
            </trkpt>
            <trkpt lon="101.284611" lat="14.298105">
                <ele>41.473999</ele>
                <time>2006-04-23T05:08:03Z</time>
            </trkpt>
            <trkpt lon="101.284161" lat="14.298041">
                <ele>40.512817</ele>
                <time>2006-04-23T05:08:19Z</time>
            </trkpt>
            <trkpt lon="101.284096" lat="14.298019">
                <ele>39.551270</ele>
                <time>2006-04-23T05:08:23Z</time>
            </trkpt>
            <trkpt lon="101.284075" lat="14.297976">
                <ele>39.070679</ele>
                <time>2006-04-23T05:08:28Z</time>
            </trkpt>
            <trkpt lon="101.283796" lat="14.297848">
                <ele>38.109375</ele>
                <time>2006-04-23T05:08:53Z</time>
            </trkpt>
            <trkpt lon="101.283710" lat="14.297805">
                <ele>37.628662</ele>
                <time>2006-04-23T05:08:57Z</time>
            </trkpt>
            <trkpt lon="101.283753" lat="14.297848">
                <ele>36.186768</ele>
                <time>2006-04-23T05:09:01Z</time>
            </trkpt>
            <trkpt lon="101.283774" lat="14.297934">
                <ele>37.148071</ele>
                <time>2006-04-23T05:09:05Z</time>
            </trkpt>
            <trkpt lon="101.284010" lat="14.298062">
                <ele>37.628662</ele>
                <time>2006-04-23T05:09:14Z</time>
            </trkpt>
            <trkpt lon="101.284633" lat="14.298041">
                <ele>35.706055</ele>
                <time>2006-04-23T05:09:27Z</time>
            </trkpt>
            <trkpt lon="101.284761" lat="14.297934">
                <ele>35.706055</ele>
                <time>2006-04-23T05:09:31Z</time>
            </trkpt>
            <trkpt lon="101.284869" lat="14.297805">
                <ele>34.264160</ele>
                <time>2006-04-23T05:09:34Z</time>
            </trkpt>
            <trkpt lon="101.285512" lat="14.296818">
                <ele>29.938110</ele>
                <time>2006-04-23T05:09:54Z</time>
            </trkpt>
            <trkpt lon="101.285598" lat="14.296668">
                <ele>29.457520</ele>
                <time>2006-04-23T05:09:57Z</time>
            </trkpt>
            <trkpt lon="101.285598" lat="14.295852">
                <ele>25.612305</ele>
                <time>2006-04-23T05:10:09Z</time>
            </trkpt>
            <trkpt lon="101.285555" lat="14.294629">
                <ele>24.170288</ele>
                <time>2006-04-23T05:10:27Z</time>
            </trkpt>
            <trkpt lon="101.285512" lat="14.293814">
                <ele>23.689575</ele>
                <time>2006-04-23T05:10:39Z</time>
            </trkpt>
            <trkpt lon="101.285641" lat="14.293556">
                <ele>23.208984</ele>
                <time>2006-04-23T05:10:43Z</time>
            </trkpt>
            <trkpt lon="101.286564" lat="14.292569">
                <ele>23.208984</ele>
                <time>2006-04-23T05:11:04Z</time>
            </trkpt>
            <trkpt lon="101.286843" lat="14.292312">
                <ele>23.208984</ele>
                <time>2006-04-23T05:11:11Z</time>
            </trkpt>
            <trkpt lon="101.287036" lat="14.292312">
                <ele>23.208984</ele>
                <time>2006-04-23T05:11:15Z</time>
            </trkpt>
            <trkpt lon="101.287851" lat="14.292891">
                <ele>22.728271</ele>
                <time>2006-04-23T05:11:35Z</time>
            </trkpt>
            <trkpt lon="101.288817" lat="14.293578">
                <ele>22.247559</ele>
                <time>2006-04-23T05:11:57Z</time>
            </trkpt>
            <trkpt lon="101.289804" lat="14.294307">
                <ele>23.689575</ele>
                <time>2006-04-23T05:12:19Z</time>
            </trkpt>
            <trkpt lon="101.290877" lat="14.295058">
                <ele>26.092896</ele>
                <time>2006-04-23T05:12:43Z</time>
            </trkpt>
            <trkpt lon="101.291757" lat="14.295702">
                <ele>25.131714</ele>
                <time>2006-04-23T05:13:07Z</time>
            </trkpt>
            <trkpt lon="101.291864" lat="14.295788">
                <ele>25.131714</ele>
                <time>2006-04-23T05:13:10Z</time>
            </trkpt>
            <trkpt lon="101.292229" lat="14.296174">
                <ele>24.651001</ele>
                <time>2006-04-23T05:13:22Z</time>
            </trkpt>
            <trkpt lon="101.292486" lat="14.297161">
                <ele>24.651001</ele>
                <time>2006-04-23T05:13:43Z</time>
            </trkpt>
            <trkpt lon="101.292636" lat="14.297976">
                <ele>25.131714</ele>
                <time>2006-04-23T05:13:58Z</time>
            </trkpt>
            <trkpt lon="101.292851" lat="14.299178">
                <ele>26.573608</ele>
                <time>2006-04-23T05:14:20Z</time>
            </trkpt>
            <trkpt lon="101.292958" lat="14.299715">
                <ele>26.573608</ele>
                <time>2006-04-23T05:14:30Z</time>
            </trkpt>
            <trkpt lon="101.293023" lat="14.299929">
                <ele>28.015503</ele>
                <time>2006-04-23T05:14:36Z</time>
            </trkpt>
            <trkpt lon="101.293237" lat="14.300938">
                <ele>27.534912</ele>
                <time>2006-04-23T05:14:54Z</time>
            </trkpt>
            <trkpt lon="101.293452" lat="14.302075">
                <ele>27.534912</ele>
                <time>2006-04-23T05:15:14Z</time>
            </trkpt>
            <trkpt lon="101.293473" lat="14.303019">
                <ele>27.534912</ele>
                <time>2006-04-23T05:15:31Z</time>
            </trkpt>
            <trkpt lon="101.293430" lat="14.304028">
                <ele>28.976929</ele>
                <time>2006-04-23T05:15:50Z</time>
            </trkpt>
            <trkpt lon="101.293366" lat="14.304907">
                <ele>28.976929</ele>
                <time>2006-04-23T05:16:08Z</time>
            </trkpt>
            <trkpt lon="101.293344" lat="14.305916">
                <ele>28.976929</ele>
                <time>2006-04-23T05:16:29Z</time>
            </trkpt>
            <trkpt lon="101.293302" lat="14.306989">
                <ele>31.380127</ele>
                <time>2006-04-23T05:16:52Z</time>
            </trkpt>
            <trkpt lon="101.293323" lat="14.307590">
                <ele>31.860718</ele>
                <time>2006-04-23T05:17:05Z</time>
            </trkpt>
            <trkpt lon="101.293666" lat="14.308405">
                <ele>31.380127</ele>
                <time>2006-04-23T05:17:22Z</time>
            </trkpt>
            <trkpt lon="101.294374" lat="14.309714">
                <ele>32.341553</ele>
                <time>2006-04-23T05:17:48Z</time>
            </trkpt>
            <trkpt lon="101.295083" lat="14.311044">
                <ele>32.822266</ele>
                <time>2006-04-23T05:18:14Z</time>
            </trkpt>
            <trkpt lon="101.295769" lat="14.312353">
                <ele>33.783447</ele>
                <time>2006-04-23T05:18:40Z</time>
            </trkpt>
            <trkpt lon="101.296370" lat="14.313340">
                <ele>36.186768</ele>
                <time>2006-04-23T05:19:03Z</time>
            </trkpt>
            <trkpt lon="101.297143" lat="14.313984">
                <ele>35.706055</ele>
                <time>2006-04-23T05:19:21Z</time>
            </trkpt>
            <trkpt lon="101.297915" lat="14.314563">
                <ele>36.186768</ele>
                <time>2006-04-23T05:19:39Z</time>
            </trkpt>
            <trkpt lon="101.298001" lat="14.314628">
                <ele>36.186768</ele>
                <time>2006-04-23T05:19:42Z</time>
            </trkpt>
            <trkpt lon="101.298172" lat="14.314692">
                <ele>36.186768</ele>
                <time>2006-04-23T05:19:46Z</time>
            </trkpt>
            <trkpt lon="101.298323" lat="14.314713">
                <ele>36.667480</ele>
                <time>2006-04-23T05:19:49Z</time>
            </trkpt>
            <trkpt lon="101.298516" lat="14.314821">
                <ele>36.186768</ele>
                <time>2006-04-23T05:19:53Z</time>
            </trkpt>
            <trkpt lon="101.299460" lat="14.315550">
                <ele>35.706055</ele>
                <time>2006-04-23T05:20:14Z</time>
            </trkpt>
            <trkpt lon="101.300383" lat="14.316258">
                <ele>35.225464</ele>
                <time>2006-04-23T05:20:33Z</time>
            </trkpt>
            <trkpt lon="101.300812" lat="14.316602">
                <ele>34.744873</ele>
                <time>2006-04-23T05:20:44Z</time>
            </trkpt>
            <trkpt lon="101.301026" lat="14.316537">
                <ele>33.783447</ele>
                <time>2006-04-23T05:20:50Z</time>
            </trkpt>
            <trkpt lon="101.301327" lat="14.316516">
                <ele>34.264160</ele>
                <time>2006-04-23T05:21:01Z</time>
            </trkpt>
            <trkpt lon="101.301370" lat="14.316516">
                <ele>34.744873</ele>
                <time>2006-04-23T05:21:03Z</time>
            </trkpt>
            <trkpt lon="101.301563" lat="14.316323">
                <ele>32.341553</ele>
                <time>2006-04-23T05:21:13Z</time>
            </trkpt>
            <trkpt lon="101.301885" lat="14.316473">
                <ele>32.822266</ele>
                <time>2006-04-23T05:21:25Z</time>
            </trkpt>
            <trkpt lon="101.302185" lat="14.316559">
                <ele>32.822266</ele>
                <time>2006-04-23T05:21:36Z</time>
            </trkpt>
            <trkpt lon="101.302207" lat="14.316452">
                <ele>33.302856</ele>
                <time>2006-04-23T05:21:40Z</time>
            </trkpt>
            <trkpt lon="101.302121" lat="14.316258">
                <ele>33.302856</ele>
                <time>2006-04-23T05:21:48Z</time>
            </trkpt>
            <trkpt lon="101.302164" lat="14.316151">
                <ele>34.264160</ele>
                <time>2006-04-23T05:21:53Z</time>
            </trkpt>
            <trkpt lon="101.302099" lat="14.316108">
                <ele>35.225464</ele>
                <time>2006-04-23T05:22:05Z</time>
            </trkpt>
            <trkpt lon="101.302121" lat="14.316087">
                <ele>34.744873</ele>
                <time>2006-04-23T05:22:24Z</time>
            </trkpt>
            <trkpt lon="101.302121" lat="14.316087">
                <ele>34.744873</ele>
                <time>2006-04-23T05:22:25Z</time>
            </trkpt>
            <trkpt lon="101.302164" lat="14.316087">
                <ele>34.264160</ele>
                <time>2006-04-23T05:22:37Z</time>
            </trkpt>
        </trkseg>
    </trk>
</gpx>